Time;durP1;ratioP1;P1;durP2;ratioP2;P2;SDS_P1;SDS_P2;PMS_P1;PMS_P2;Temp;Humidity;BMP_temperature;BMP_pressure;BME280_temperature;BME280_humidity;BME280_pressure;Samples;Min_cycle;Max_cycle;Signal;HPM_P1;HPM_P2
2022/11/01 00:01:57;;;;;;;6.30;1.87;;;;;;;;;;4999303;28;93997;-51
2022/11/01 00:04:27;;;;;;;2.40;1.17;;;;;;;;;;4999073;28;92754;-51
2022/11/01 00:06:55;;;;;;;3.17;1.73;;;;;;;;;;4996760;28;92137;-51
2022/11/01 00:09:23;;;;;;;1.07;0.97;;;;;;;;;;4997824;28;92133;-51
2022/11/01 00:11:51;;;;;;;2.63;1.67;;;;;;;;;;4997376;28;93863;-51
2022/11/01 00:14:20;;;;;;;3.07;1.17;;;;;;;;;;4996956;28;94682;-51
2022/11/01 00:16:48;;;;;;;2.77;1.20;;;;;;;;;;4997936;28;92583;-51
2022/11/01 00:19:16;;;;;;;1.73;1.40;;;;;;;;;;4997883;28;92191;-51
2022/11/01 00:21:46;;;;;;;2.40;1.43;;;;;;;;;;5000047;28;93094;-51
2022/11/01 00:24:14;;;;;;;4.47;1.67;;;;;;;;;;4999167;28;93369;-51
2022/11/01 00:26:42;;;;;;;2.97;1.43;;;;;;;;;;5000371;28;91878;-51
2022/11/01 00:29:11;;;;;;;1.07;0.97;;;;;;;;;;4999608;28;91414;-51
2022/11/01 00:31:40;;;;;;;1.30;1.07;;;;;;;;;;4999630;28;93166;-51
2022/11/01 00:34:08;;;;;;;0.70;0.70;;;;;;;;;;4997548;28;92952;-51
2022/11/01 00:36:36;;;;;;;1.90;1.20;;;;;;;;;;4999485;28;92903;-51
2022/11/01 00:43:12;;;;;;;5.17;1.30;;;;;;;;;;5006544;22;93413;-51
2022/11/01 00:45:49;;;;;;;1.30;1.20;;;;;;;;;;5017892;28;92823;-52
2022/11/01 00:48:17;;;;;;;1.77;1.20;;;;;;;;;;5034173;28;92153;-51
2022/11/01 00:50:45;;;;;;;1.50;1.20;;;;;;;;;;5039507;28;92303;-51
2022/11/01 00:53:14;;;;;;;2.10;0.90;;;;;;;;;;5038190;28;93946;-51
2022/11/01 00:55:42;;;;;;;1.10;1.00;;;;;;;;;;5023496;28;93566;-51
2022/11/01 00:58:10;;;;;;;2.13;1.10;;;;;;;;;;5020204;28;92035;-51
2022/11/01 01:00:39;;;;;;;1.27;1.13;;;;;;;;;;5032293;28;92005;-51
2022/11/01 01:03:08;;;;;;;4.80;1.30;;;;;;;;;;5036776;28;94496;-51
2022/11/01 01:05:36;;;;;;;2.53;1.20;;;;;;;;;;5028410;28;94893;-51
2022/11/01 01:08:05;;;;;;;1.50;1.37;;;;;;;;;;5019668;28;92079;-51
2022/11/01 01:10:33;;;;;;;1.33;1.23;;;;;;;;;;5023414;28;92925;-51
2022/11/01 01:13:01;;;;;;;0.77;0.73;;;;;;;;;;5019921;28;93136;-51
2022/11/01 01:15:30;;;;;;;2.30;1.47;;;;;;;;;;5019311;28;93952;-51
2022/11/01 01:17:58;;;;;;;1.97;1.20;;;;;;;;;;5026928;28;92040;-51
2022/11/01 01:20:29;;;;;;;1.07;1.00;;;;;;;;;;5038332;28;91351;-51
2022/11/01 01:22:57;;;;;;;1.23;0.97;;;;;;;;;;5039723;28;93099;-51
2022/11/01 01:25:25;;;;;;;1.60;0.97;;;;;;;;;;5037555;28;92581;-51
2022/11/01 01:27:53;;;;;;;1.37;1.27;;;;;;;;;;5038305;28;93022;-51
2022/11/01 01:30:22;;;;;;;1.30;1.00;;;;;;;;;;5037914;28;92845;-51
2022/11/01 01:32:50;;;;;;;1.83;1.17;;;;;;;;;;5027461;28;93344;-51
2022/11/01 01:35:18;;;;;;;1.73;1.03;;;;;;;;;;5019941;28;92483;-51
2022/11/01 01:37:48;;;;;;;1.80;1.03;;;;;;;;;;5034108;28;92168;-51
2022/11/01 01:40:16;;;;;;;1.57;1.30;;;;;;;;;;5039291;28;92016;-51
2022/11/01 01:42:46;;;;;;;1.20;1.10;;;;;;;;;;5019798;28;93100;-52
2022/11/01 01:45:30;;;;;;;0.80;0.80;;;;;;;;;;5032923;28;93924;-51
2022/11/01 01:48:00;;;;;;;0.90;0.90;;;;;;;;;;5024815;28;91972;-51
2022/11/01 01:50:30;;;;;;;1.23;1.00;;;;;;;;;;5037478;28;91988;-51
2022/11/01 01:53:02;;;;;;;1.70;1.20;;;;;;;;;;5037111;28;94885;-51
2022/11/01 01:55:33;;;;;;;2.90;1.20;;;;;;;;;;5036958;28;93674;-51
2022/11/01 01:58:01;;;;;;;1.20;0.90;;;;;;;;;;5024170;28;91950;-51
2022/11/01 02:00:30;;;;;;;2.37;1.33;;;;;;;;;;5039224;28;92069;-51
2022/11/01 02:02:58;;;;;;;3.40;1.33;;;;;;;;;;5022909;28;93426;-51
2022/11/01 02:05:31;;;;;;;1.30;1.20;;;;;;;;;;5019833;28;92838;-51
2022/11/01 02:08:01;;;;;;;2.70;1.43;;;;;;;;;;5021058;28;91993;-51
2022/11/01 02:10:30;;;;;;;1.23;1.13;;;;;;;;;;5019832;28;91317;-51
2022/11/01 02:12:58;;;;;;;3.77;1.47;;;;;;;;;;5027870;28;94077;-52
2022/11/01 02:15:28;;;;;;;1.30;1.20;;;;;;;;;;5038311;28;94316;-51
2022/11/01 02:18:05;;;;;;;1.60;1.30;;;;;;;;;;5037316;28;94634;-52
2022/11/01 02:20:38;;;;;;;1.20;0.90;;;;;;;;;;5037683;28;91949;-51
2022/11/01 02:23:21;;;;;;;1.20;1.10;;;;;;;;;;5021988;28;93198;-51
2022/11/01 02:25:56;;;;;;;1.30;1.20;;;;;;;;;;5001543;28;94064;-52
2022/11/01 02:28:30;;;;;;;1.83;1.03;;;;;;;;;;5041231;28;92216;-51
2022/11/01 02:31:00;;;;;;;1.63;1.27;;;;;;;;;;5042320;28;92047;-52
2022/11/01 02:33:30;;;;;;;3.10;1.83;;;;;;;;;;5041404;28;94002;-51
2022/11/01 02:36:00;;;;;;;1.13;1.03;;;;;;;;;;5040771;28;93845;-51
2022/11/01 02:38:29;;;;;;;1.60;1.47;;;;;;;;;;5028557;28;92181;-51
2022/11/01 02:41:01;;;;;;;2.87;1.10;;;;;;;;;;5031290;28;92033;-51
2022/11/01 02:43:30;;;;;;;2.77;1.53;;;;;;;;;;5033813;28;93069;-51
2022/11/01 02:46:59;;;;;;;1.37;1.27;;;;;;;;;;5036190;28;93704;-51
2022/11/01 02:48:48;;;;;;;1.77;1.30;;;;;;;;;;5028062;28;92054;-51
2022/11/01 02:51:17;;;;;;;1.80;0.80;;;;;;;;;;5042032;28;91872;-51
2022/11/01 02:53:46;;;;;;;0.97;0.90;;;;;;;;;;5041276;28;94157;-57
2022/11/01 02:56:14;;;;;;;1.80;0.87;;;;;;;;;;5041699;28;93961;-51
2022/11/01 02:58:42;;;;;;;3.97;1.03;;;;;;;;;;5038858;28;92153;-51
2022/11/01 03:01:14;;;;;;;4.37;1.27;;;;;;;;;;5024999;28;91291;-51
2022/11/01 03:03:42;;;;;;;1.50;0.90;;;;;;;;;;5021706;28;93126;-52
2022/11/01 03:06:13;;;;;;;1.53;1.07;;;;;;;;;;5021512;28;92761;-51
2022/11/01 03:08:42;;;;;;;3.00;1.40;;;;;;;;;;5030011;28;93700;-51
2022/11/01 03:11:10;;;;;;;3.30;1.13;;;;;;;;;;5039127;28;92219;-57
2022/11/01 03:13:45;;;;;;;1.07;0.97;;;;;;;;;;5039739;28;94030;-52
2022/11/01 03:16:15;;;;;;;1.50;0.93;;;;;;;;;;5030059;28;93877;-52
2022/11/01 03:18:46;;;;;;;0.70;0.57;;;;;;;;;;5028518;28;92592;-52
2022/11/01 03:21:17;;;;;;;1.43;1.03;;;;;;;;;;5039995;28;92336;-55
2022/11/01 03:23:46;;;;;;;4.17;1.90;;;;;;;;;;5038742;28;93307;-57
2022/11/01 03:26:14;;;;;;;1.37;1.03;;;;;;;;;;5040210;28;93887;-51
2022/11/01 03:28:43;;;;;;;3.47;1.10;;;;;;;;;;5021309;28;92153;-51
2022/11/01 03:31:12;;;;;;;3.57;1.10;;;;;;;;;;5021849;28;92546;-51
2022/11/01 03:33:41;;;;;;;4.13;1.10;;;;;;;;;;5020856;28;95183;-51
2022/11/01 03:36:10;;;;;;;1.10;1.00;;;;;;;;;;5020955;28;94887;-53
2022/11/01 03:38:43;;;;;;;0.80;0.80;;;;;;;;;;5023049;28;92390;-53
2022/11/01 03:41:12;;;;;;;0.60;0.60;;;;;;;;;;5033398;28;91991;-51
2022/11/01 03:43:40;;;;;;;0.80;0.80;;;;;;;;;;5037537;28;94164;-51
2022/11/01 03:46:08;;;;;;;2.10;0.83;;;;;;;;;;5040610;28;92389;-51
2022/11/01 03:48:39;;;;;;;0.80;0.80;;;;;;;;;;5031387;28;93722;-51
2022/11/01 03:51:07;;;;;;;0.97;0.90;;;;;;;;;;5040067;28;91363;-51
2022/11/01 03:53:35;;;;;;;1.43;1.03;;;;;;;;;;5022671;28;94211;-51
2022/11/01 03:56:05;;;;;;;2.47;1.40;;;;;;;;;;5040746;28;93832;-51
2022/11/01 03:58:44;;;;;;;1.37;1.17;;;;;;;;;;5034583;28;93046;-52
2022/11/01 04:01:13;;;;;;;1.73;1.03;;;;;;;;;;5022204;28;92124;-52
2022/11/01 04:03:41;;;;;;;1.10;1.00;;;;;;;;;;5020648;28;94266;-52
2022/11/01 04:06:09;;;;;;;1.13;0.73;;;;;;;;;;5020520;28;93766;-52
2022/11/01 04:08:38;;;;;;;1.00;0.83;;;;;;;;;;5027923;28;92069;-52
2022/11/01 04:11:07;;;;;;;1.40;1.30;;;;;;;;;;5040932;28;92041;-51
2022/11/01 04:13:37;;;;;;;0.80;0.73;;;;;;;;;;5039941;28;92655;-51
2022/11/01 04:21:37;;;;;;;1.00;0.90;;;;;;;;;;5041486;28;92102;-52
2022/11/01 04:24:06;;;;;;;4.13;0.90;;;;;;;;;;5039950;28;95152;-51
2022/11/01 04:26:36;;;;;;;1.13;0.93;;;;;;;;;;5021889;28;94839;-51
2022/11/01 04:29:04;;;;;;;0.90;0.77;;;;;;;;;;5026337;28;92066;-51
2022/11/01 04:31:33;;;;;;;1.27;0.97;;;;;;;;;;5037416;28;92065;-53
2022/11/01 04:34:01;;;;;;;0.53;0.53;;;;;;;;;;5040342;28;94316;-52
2022/11/01 04:36:29;;;;;;;0.77;0.77;;;;;;;;;;5039946;28;93751;-51
2022/11/01 04:38:58;;;;;;;0.83;0.53;;;;;;;;;;5040513;28;92283;-52
2022/11/01 04:41:26;;;;;;;1.20;1.10;;;;;;;;;;5027951;28;91390;-51
2022/11/01 04:43:56;;;;;;;0.87;0.77;;;;;;;;;;5034749;27;92981;-51
2022/11/01 04:46:26;;;;;;;1.13;0.87;;;;;;;;;;5040236;28;93884;-52
2022/11/01 04:48:55;;;;;;;0.97;0.80;;;;;;;;;;5039590;28;93822;-51
2022/11/01 04:51:23;;;;;;;1.10;0.80;;;;;;;;;;5035847;28;92755;-52
2022/11/01 04:53:52;;;;;;;0.63;0.60;;;;;;;;;;5040329;28;94039;-52
2022/11/01 04:56:20;;;;;;;2.13;1.07;;;;;;;;;;5037792;28;94096;-52
2022/11/01 04:58:48;;;;;;;0.87;0.80;;;;;;;;;;5040585;28;92030;-51
2022/11/01 05:01:18;;;;;;;1.00;0.60;;;;;;;;;;5029212;28;91793;-51
2022/11/01 05:03:48;;;;;;;1.63;0.60;;;;;;;;;;5039443;28;94132;-52
2022/11/01 05:06:16;;;;;;;2.77;0.90;;;;;;;;;;5039769;28;92791;-51
2022/11/01 05:08:44;;;;;;;0.70;0.70;;;;;;;;;;5040127;28;92051;-52
2022/11/01 05:11:13;;;;;;;2.17;0.97;;;;;;;;;;5038447;28;91967;-52
2022/11/01 05:13:41;;;;;;;0.77;0.67;;;;;;;;;;5037034;28;95122;-52
2022/11/01 05:16:09;;;;;;;1.13;0.83;;;;;;;;;;5034113;28;94584;-52
2022/11/01 05:18:54;;;;;;;1.17;0.90;;;;;;;;;;5024072;28;92121;-52
2022/11/01 05:21:22;;;;;;;1.27;0.93;;;;;;;;;;5039701;28;92116;-52
2022/11/01 05:23:51;;;;;;;0.40;0.40;;;;;;;;;;5039280;28;92944;-52
2022/11/01 05:26:19;;;;;;;0.43;0.43;;;;;;;;;;5032663;28;92725;-52
2022/11/01 05:28:47;;;;;;;0.87;0.77;;;;;;;;;;5035724;28;92128;-52
2022/11/01 05:31:16;;;;;;;0.90;0.70;;;;;;;;;;5040598;28;91367;-51
2022/11/01 05:33:44;;;;;;;1.53;0.50;;;;;;;;;;5021962;28;94288;-52
2022/11/01 05:36:13;;;;;;;1.63;0.50;;;;;;;;;;5019362;28;92579;-52
2022/11/01 05:38:42;;;;;;;1.07;0.60;;;;;;;;;;5032684;28;93107;-52
2022/11/01 05:41:10;;;;;;;2.53;1.00;;;;;;;;;;5023819;28;92216;-52
2022/11/01 05:43:43;;;;;;;0.70;0.70;;;;;;;;;;5034310;28;92804;-51
2022/11/01 05:46:12;;;;;;;1.03;0.60;;;;;;;;;;5025683;28;93767;-52
2022/11/01 05:48:41;;;;;;;0.50;0.50;;;;;;;;;;5025038;28;92152;-51
2022/11/01 05:51:09;;;;;;;0.63;0.50;;;;;;;;;;5037150;28;92130;-51
2022/11/01 05:53:39;;;;;;;0.93;0.60;;;;;;;;;;5038909;28;94061;-52
2022/11/01 05:56:07;;;;;;;1.27;0.90;;;;;;;;;;5039730;28;93852;-52
2022/11/01 05:58:35;;;;;;;1.93;0.80;;;;;;;;;;5037180;28;92012;-52
2022/11/01 06:01:04;;;;;;;0.53;0.43;;;;;;;;;;5032299;28;93679;-52
2022/11/01 06:03:33;;;;;;;1.37;0.70;;;;;;;;;;5018627;28;95168;-52
2022/11/01 06:06:01;;;;;;;0.60;0.60;;;;;;;;;;5019531;28;94805;-51
2022/11/01 06:08:29;;;;;;;0.70;0.60;;;;;;;;;;5033767;28;92029;-52
2022/11/01 06:11:02;;;;;;;0.70;0.60;;;;;;;;;;5037659;28;92038;-52
2022/11/01 06:13:31;;;;;;;0.73;0.57;;;;;;;;;;5030966;28;94193;-52
2022/11/01 06:15:59;;;;;;;0.60;0.53;;;;;;;;;;5020023;28;92111;-52
2022/11/01 06:18:27;;;;;;;1.37;0.43;;;;;;;;;;5033254;28;93868;-51
2022/11/01 06:20:56;;;;;;;1.43;0.50;;;;;;;;;;5025670;28;91454;-51
2022/11/01 06:23:24;;;;;;;0.90;0.53;;;;;;;;;;5019271;28;94324;-52
2022/11/01 06:25:55;;;;;;;0.40;0.40;;;;;;;;;;5018276;28;92240;-52
2022/11/01 06:28:25;;;;;;;2.43;0.67;;;;;;;;;;5025986;28;93047;-52
2022/11/01 06:30:53;;;;;;;3.23;0.50;;;;;;;;;;5021015;28;92123;-52
2022/11/01 06:33:21;;;;;;;1.33;0.50;;;;;;;;;;5019736;28;94363;-52
2022/11/01 06:35:50;;;;;;;0.70;0.53;;;;;;;;;;5018877;28;93558;-51
2022/11/01 06:38:18;;;;;;;0.90;0.60;;;;;;;;;;5018787;28;92140;-53
2022/11/01 06:40:46;;;;;;;1.03;0.70;;;;;;;;;;5031458;28;92078;-55
2022/11/01 06:43:15;;;;;;;2.60;0.70;;;;;;;;;;5033091;28;93155;-54
2022/11/01 06:45:44;;;;;;;6.67;1.00;;;;;;;;;;5034702;28;92602;-54
2022/11/01 06:48:13;;;;;;;0.40;0.40;;;;;;;;;;5037743;28;92009;-54
2022/11/01 06:50:41;;;;;;;0.57;0.50;;;;;;;;;;5029310;28;92000;-53
2022/11/01 06:53:09;;;;;;;0.70;0.60;;;;;;;;;;5025135;28;94075;-54
2022/11/01 06:55:37;;;;;;;1.37;0.70;;;;;;;;;;5036886;28;93715;-54
2022/11/01 06:58:06;;;;;;;1.20;0.83;;;;;;;;;;5037198;28;92437;-53
2022/11/01 07:00:34;;;;;;;0.30;0.30;;;;;;;;;;5031705;28;92912;-54
2022/11/01 07:03:04;;;;;;;1.03;0.40;;;;;;;;;;5027911;28;93179;-54
2022/11/01 07:05:32;;;;;;;1.33;0.67;;;;;;;;;;5023425;27;92557;-54
2022/11/01 07:08:05;;;;;;;0.60;0.57;;;;;;;;;;5041703;28;92162;-54
2022/11/01 07:10:33;;;;;;;3.77;0.50;;;;;;;;;;5033240;28;91264;-54
2022/11/01 07:13:02;;;;;;;13.53;0.67;;;;;;;;;;5040761;28;92022;-54
2022/11/01 07:15:30;;;;;;;0.83;0.50;;;;;;;;;;5033779;28;92971;-52
2022/11/01 07:17:58;;;;;;;2.93;1.00;;;;;;;;;;5040730;28;93067;-51
2022/11/01 07:20:29;;;;;;;1.47;0.50;;;;;;;;;;5038358;28;92026;-52
2022/11/01 07:22:59;;;;;;;1.40;0.40;;;;;;;;;;5038778;28;94138;-51
2022/11/01 07:25:28;;;;;;;1.20;0.80;;;;;;;;;;5038573;28;92804;-50
2022/11/01 07:27:56;;;;;;;4.17;0.37;;;;;;;;;;5025837;28;92095;-52
2022/11/01 07:30:24;;;;;;;0.77;0.73;;;;;;;;;;5036631;28;92132;-51
2022/11/01 07:32:55;;;;;;;2.97;1.07;;;;;;;;;;5033652;28;92886;-51
2022/11/01 07:35:23;;;;;;;0.70;0.57;;;;;;;;;;5020548;28;92759;-51
2022/11/01 07:37:53;;;;;;;0.83;0.80;;;;;;;;;;5039756;28;92108;-51
2022/11/01 07:40:26;;;;;;;0.47;0.40;;;;;;;;;;5032748;28;92136;-51
2022/11/01 07:42:55;;;;;;;1.40;0.70;;;;;;;;;;5019511;28;95122;-51
2022/11/01 07:45:23;;;;;;;0.57;0.57;;;;;;;;;;5019222;28;92732;-51
2022/11/01 07:47:52;;;;;;;0.50;0.50;;;;;;;;;;5035764;28;92115;-51
2022/11/01 07:50:20;;;;;;;2.77;0.60;;;;;;;;;;5040238;28;92101;-51
2022/11/01 07:52:48;;;;;;;2.73;0.77;;;;;;;;;;5032622;28;93101;-51
2022/11/01 07:55:18;;;;;;;2.03;0.67;;;;;;;;;;5039310;28;92949;-51
2022/11/01 07:57:46;;;;;;;1.50;1.23;;;;;;;;;;5039198;28;92058;-51
2022/11/01 08:00:15;;;;;;;1.13;0.70;;;;;;;;;;5037134;28;91335;-52
2022/11/01 08:02:44;;;;;;;0.80;0.40;;;;;;;;;;5030454;28;94139;-52
2022/11/01 08:05:12;;;;;;;0.70;0.60;;;;;;;;;;5012450;28;93699;-51
2022/11/01 08:07:40;;;;;;;1.63;0.67;;;;;;;;;;5019105;28;92979;-51
2022/11/01 08:10:09;;;;;;;4.67;0.63;;;;;;;;;;5023418;28;92063;-53
2022/11/01 08:12:39;;;;;;;2.10;0.97;;;;;;;;;;5019232;28;94250;-51
2022/11/01 08:15:08;;;;;;;4.73;0.63;;;;;;;;;;5034361;28;92108;-52
2022/11/01 08:17:38;;;;;;;3.17;0.47;;;;;;;;;;5027544;28;92121;-52
2022/11/01 08:20:07;;;;;;;0.47;0.40;;;;;;;;;;5022264;28;92489;-51
2022/11/01 08:22:36;;;;;;;2.07;0.70;;;;;;;;;;5018735;28;92973;-52
2022/11/01 08:25:05;;;;;;;3.20;1.00;;;;;;;;;;5020295;28;92828;-52
2022/11/01 08:27:33;;;;;;;2.83;0.47;;;;;;;;;;5032525;28;92072;-52
2022/11/01 08:30:04;;;;;;;0.80;0.57;;;;;;;;;;5037294;28;91962;-53
2022/11/01 08:32:32;;;;;;;1.07;0.60;;;;;;;;;;5033324;28;94024;-52
2022/11/01 08:35:00;;;;;;;1.73;0.57;;;;;;;;;;5035080;28;94705;-52
2022/11/01 08:37:29;;;;;;;0.63;0.47;;;;;;;;;;5034592;28;92152;-51
2022/11/01 08:39:57;;;;;;;1.23;0.60;;;;;;;;;;5038569;28;92050;-52
2022/11/01 08:42:26;;;;;;;3.50;0.90;;;;;;;;;;5037536;28;93181;-51
2022/11/01 08:44:54;;;;;;;2.73;0.93;;;;;;;;;;4995312;28;1219093;-52
2022/11/01 08:47:24;;;;;;;0.97;0.53;;;;;;;;;;5039393;28;92123;-51
2022/11/01 08:49:52;;;;;;;1.70;0.40;;;;;;;;;;5041064;28;91298;-53
2022/11/01 08:52:21;;;;;;;1.47;0.80;;;;;;;;;;5039910;28;94218;-52
2022/11/01 08:54:49;;;;;;;2.33;0.63;;;;;;;;;;5024236;28;92789;-51
2022/11/01 08:57:17;;;;;;;2.20;0.53;;;;;;;;;;5020121;28;92928;-51
2022/11/01 08:59:46;;;;;;;2.50;0.90;;;;;;;;;;5020288;28;91947;-51
2022/11/01 09:02:14;;;;;;;0.90;0.50;;;;;;;;;;5036396;28;94054;-51
2022/11/01 09:04:44;;;;;;;1.77;1.40;;;;;;;;;;5023790;28;92800;-52
2022/11/01 09:07:12;;;;;;;0.83;0.60;;;;;;;;;;5027900;28;92002;-51
2022/11/01 09:09:40;;;;;;;3.13;0.70;;;;;;;;;;5029207;28;92313;-52
2022/11/01 09:12:11;;;;;;;1.83;0.60;;;;;;;;;;5018398;28;93170;-52
2022/11/01 09:14:42;;;;;;;1.53;0.50;;;;;;;;;;5034619;28;92692;-53
2022/11/01 09:17:11;;;;;;;2.17;0.90;;;;;;;;;;5022487;28;91855;-52
2022/11/01 09:19:39;;;;;;;1.87;0.70;;;;;;;;;;5021130;28;92154;-52
2022/11/01 09:22:09;;;;;;;6.77;0.90;;;;;;;;;;5019517;28;95387;-52
2022/11/01 09:24:38;;;;;;;2.83;0.60;;;;;;;;;;5033408;28;93742;-52
2022/11/01 09:27:07;;;;;;;1.00;0.80;;;;;;;;;;5039507;28;92444;-51
2022/11/01 09:29:36;;;;;;;2.53;0.93;;;;;;;;;;5034969;27;92210;-51
2022/11/01 09:32:05;;;;;;;6.07;0.90;;;;;;;;;;5028904;28;93276;-51
2022/11/01 09:34:33;;;;;;;1.60;0.93;;;;;;;;;;5027577;28;93829;-51
2022/11/01 09:37:02;;;;;;;2.10;0.50;;;;;;;;;;5019371;28;92347;-51
2022/11/01 09:39:31;;;;;;;1.47;0.60;;;;;;;;;;5019419;28;91215;-51
2022/11/01 09:42:00;;;;;;;0.50;0.50;;;;;;;;;;5018782;28;93090;-51
2022/11/01 09:44:29;;;;;;;0.50;0.50;;;;;;;;;;5018161;28;92826;-51
2022/11/01 09:46:58;;;;;;;0.30;0.30;;;;;;;;;;5018769;28;93020;-51
2022/11/01 09:49:31;;;;;;;0.80;0.33;;;;;;;;;;5019252;28;91834;-52
2022/11/01 09:51:59;;;;;;;1.50;0.30;;;;;;;;;;5018932;28;92883;-52
2022/11/01 09:54:27;;;;;;;0.97;0.50;;;;;;;;;;5018851;28;93805;-52
2022/11/01 09:57:02;;;;;;;0.40;0.40;;;;;;;;;;5019317;28;92030;-51
2022/11/01 09:59:31;;;;;;;1.33;0.77;;;;;;;;;;5019207;28;92080;-52
2022/11/01 10:02:02;;;;;;;2.37;0.57;;;;;;;;;;5018685;28;92877;-52
2022/11/01 10:04:53;;;;;;;0.70;0.60;;;;;;;;;;5019105;28;93930;-51
2022/11/01 10:07:23;;;;;;;2.67;0.97;;;;;;;;;;5018986;28;92046;-51
2022/11/01 10:09:53;;;;;;;1.70;0.93;;;;;;;;;;5018707;28;92811;-53
2022/11/01 10:12:31;;;;;;;2.37;0.50;;;;;;;;;;5017556;28;94954;-52
2022/11/01 10:15:04;;;;;;;2.53;0.50;;;;;;;;;;5018277;28;94902;-51
2022/11/01 10:17:38;;;;;;;0.30;0.30;;;;;;;;;;5018433;28;92078;-51
2022/11/01 10:20:08;;;;;;;1.30;0.50;;;;;;;;;;5018760;28;92107;-51
2022/11/01 10:22:37;;;;;;;1.07;0.73;;;;;;;;;;5018233;28;94114;-51
2022/11/01 10:25:06;;;;;;;1.83;0.63;;;;;;;;;;5018896;28;92599;-52
2022/11/01 10:27:44;;;;;;;2.30;0.90;;;;;;;;;;5018943;28;92096;-52
2022/11/01 10:30:13;;;;;;;2.77;0.70;;;;;;;;;;5019545;28;91305;-53
2022/11/01 10:32:41;;;;;;;1.50;0.40;;;;;;;;;;5018627;28;94156;-52
2022/11/01 10:35:12;;;;;;;1.47;0.60;;;;;;;;;;5018437;28;93906;-52
2022/11/01 10:37:42;;;;;;;0.93;0.37;;;;;;;;;;5018455;28;92945;-53
2022/11/01 10:40:33;;;;;;;0.53;0.53;;;;;;;;;;5033482;27;92086;-52
2022/11/01 10:43:02;;;;;;;4.83;0.70;;;;;;;;;;5041712;28;93927;-53
2022/11/01 10:45:31;;;;;;;2.63;0.70;;;;;;;;;;5041838;28;92831;-51
2022/11/01 10:47:59;;;;;;;3.27;0.60;;;;;;;;;;5042134;28;91996;-54
2022/11/01 10:50:28;;;;;;;3.33;0.80;;;;;;;;;;5042188;28;91907;-52
2022/11/01 10:52:57;;;;;;;1.20;0.77;;;;;;;;;;5041925;28;92802;-51
2022/11/01 10:55:27;;;;;;;0.57;0.50;;;;;;;;;;5042085;28;93850;-52
2022/11/01 10:57:56;;;;;;;5.07;0.80;;;;;;;;;;5041654;28;92056;-52
2022/11/01 11:00:25;;;;;;;1.57;0.60;;;;;;;;;;5041579;28;92037;-51
2022/11/01 11:02:55;;;;;;;1.27;0.60;;;;;;;;;;5040821;28;94172;-52
2022/11/01 11:05:23;;;;;;;1.73;0.93;;;;;;;;;;5041785;28;94779;-52
2022/11/01 11:07:52;;;;;;;1.13;0.57;;;;;;;;;;5034639;28;91922;-51
2022/11/01 11:10:21;;;;;;;0.83;0.47;;;;;;;;;;5022076;28;92060;-52
2022/11/01 11:12:52;;;;;;;0.73;0.73;;;;;;;;;;5020923;28;94106;-51
2022/11/01 11:15:21;;;;;;;0.87;0.50;;;;;;;;;;5020988;28;93972;-51
2022/11/01 11:17:52;;;;;;;2.53;0.60;;;;;;;;;;5021675;28;91881;-51
2022/11/01 11:20:21;;;;;;;0.83;0.50;;;;;;;;;;5021856;28;91137;-52
2022/11/01 11:22:49;;;;;;;0.67;0.67;;;;;;;;;;5021186;28;93986;-52
2022/11/01 11:25:18;;;;;;;0.43;0.43;;;;;;;;;;5020796;28;93919;-52
2022/11/01 11:27:47;;;;;;;0.80;0.60;;;;;;;;;;5021183;28;93079;-53
2022/11/01 11:30:26;;;;;;;0.33;0.30;;;;;;;;;;5021911;28;92138;-52
2022/11/01 11:32:57;;;;;;;0.80;0.70;;;;;;;;;;5021290;28;94035;-53
2022/11/01 11:35:26;;;;;;;4.27;0.60;;;;;;;;;;5021031;28;93847;-52
2022/11/01 11:37:55;;;;;;;0.77;0.60;;;;;;;;;;5021521;28;91925;-52
2022/11/01 11:40:24;;;;;;;2.43;0.97;;;;;;;;;;5021644;28;91982;-52
2022/11/01 11:42:53;;;;;;;5.93;0.77;;;;;;;;;;5020639;28;92150;-52
2022/11/01 11:45:23;;;;;;;0.70;0.40;;;;;;;;;;5020791;28;92871;-53
2022/11/01 11:47:51;;;;;;;1.27;0.60;;;;;;;;;;5021085;28;91894;-53
2022/11/01 11:50:34;;;;;;;1.07;0.67;;;;;;;;;;5021334;28;92094;-53
2022/11/01 11:53:05;;;;;;;0.63;0.50;;;;;;;;;;5020252;28;93064;-52
2022/11/01 11:55:38;;;;;;;3.13;0.80;;;;;;;;;;5020664;28;93701;-53
2022/11/01 11:58:06;;;;;;;1.50;0.53;;;;;;;;;;5021042;28;92048;-53
2022/11/01 12:00:35;;;;;;;4.90;1.00;;;;;;;;;;5021024;28;92118;-53
2022/11/01 12:03:04;;;;;;;0.87;0.53;;;;;;;;;;5020909;28;93185;-53
2022/11/01 12:05:34;;;;;;;0.80;0.70;;;;;;;;;;5020765;28;92057;-53
2022/11/01 12:08:02;;;;;;;2.03;0.97;;;;;;;;;;5020836;28;91974;-53
2022/11/01 12:10:32;;;;;;;3.67;0.70;;;;;;;;;;5021550;28;91208;-54
2022/11/01 12:13:01;;;;;;;1.40;0.73;;;;;;;;;;5019797;28;93403;-53
2022/11/01 12:15:30;;;;;;;0.43;0.40;;;;;;;;;;5020399;28;92742;-52
2022/11/01 12:18:11;;;;;;;0.60;0.50;;;;;;;;;;5019988;28;92966;-52
2022/11/01 12:20:44;;;;;;;1.57;0.40;;;;;;;;;;5020558;28;92020;-52
2022/11/01 12:23:13;;;;;;;1.17;0.53;;;;;;;;;;5020150;28;92990;-52
2022/11/01 12:25:42;;;;;;;1.60;1.03;;;;;;;;;;5019927;28;92764;-52
2022/11/01 12:28:14;;;;;;;3.03;0.70;;;;;;;;;;5020480;28;92047;-51
2022/11/01 12:30:42;;;;;;;1.37;0.67;;;;;;;;;;5020785;28;92106;-52
2022/11/01 12:33:13;;;;;;;1.63;0.70;;;;;;;;;;5019769;28;94068;-51
2022/11/01 12:35:47;;;;;;;0.93;0.60;;;;;;;;;;5020070;28;93576;-51
2022/11/01 12:38:39;;;;;;;1.63;0.60;;;;;;;;;;5026552;28;92146;-51
2022/11/01 12:41:15;;;;;;;2.73;1.23;;;;;;;;;;5040317;28;92092;-51
2022/11/01 12:43:48;;;;;;;2.90;0.63;;;;;;;;;;5038711;28;93887;-51
2022/11/01 12:46:18;;;;;;;1.33;1.10;;;;;;;;;;5039299;28;93923;-52
2022/11/01 12:48:47;;;;;;;3.07;0.50;;;;;;;;;;5040265;28;91754;-51
2022/11/01 12:51:19;;;;;;;3.43;0.70;;;;;;;;;;5040453;28;92120;-51
2022/11/01 12:53:48;;;;;;;0.93;0.43;;;;;;;;;;5040080;28;93972;-50
2022/11/01 12:56:17;;;;;;;1.53;1.03;;;;;;;;;;5040124;28;93919;-51
2022/11/01 12:58:45;;;;;;;1.77;0.70;;;;;;;;;;5040598;28;92059;-51
2022/11/01 13:01:19;;;;;;;0.60;0.50;;;;;;;;;;5040486;28;91387;-51
2022/11/01 13:03:49;;;;;;;0.83;0.30;;;;;;;;;;5038548;27;94109;-51
2022/11/01 13:06:22;;;;;;;1.10;0.90;;;;;;;;;;5039820;28;93754;-52
2022/11/01 13:08:52;;;;;;;1.17;0.60;;;;;;;;;;5039165;28;93034;-51
2022/11/01 13:11:26;;;;;;;1.30;0.70;;;;;;;;;;5039603;28;91751;-51
2022/11/01 13:13:56;;;;;;;1.50;0.63;;;;;;;;;;5039447;28;93999;-51
2022/11/01 13:16:25;;;;;;;1.10;0.63;;;;;;;;;;5039643;28;92646;-51
2022/11/01 13:18:55;;;;;;;0.73;0.60;;;;;;;;;;5040125;28;92206;-51
2022/11/01 13:21:28;;;;;;;6.30;0.63;;;;;;;;;;5039865;28;92177;-51
2022/11/01 13:23:57;;;;;;;2.20;0.83;;;;;;;;;;5039063;28;94279;-51
2022/11/01 13:26:27;;;;;;;1.10;0.70;;;;;;;;;;5039633;28;93708;-51
2022/11/01 13:29:02;;;;;;;0.40;0.40;;;;;;;;;;5039862;28;92022;-51
2022/11/01 13:31:32;;;;;;;0.60;0.60;;;;;;;;;;5039492;28;92133;-51
2022/11/01 13:34:03;;;;;;;1.23;0.57;;;;;;;;;;5038792;28;95300;-51
2022/11/01 13:36:34;;;;;;;2.07;0.97;;;;;;;;;;5039140;28;95071;-52
2022/11/01 13:39:03;;;;;;;1.47;0.73;;;;;;;;;;5039597;28;92086;-51
2022/11/01 13:41:32;;;;;;;0.80;0.80;;;;;;;;;;5039535;28;92101;-51
2022/11/01 13:44:01;;;;;;;3.40;0.60;;;;;;;;;;5038974;28;93449;-51
2022/11/01 13:46:45;;;;;;;1.30;0.70;;;;;;;;;;5038752;28;93916;-52
2022/11/01 13:49:23;;;;;;;0.40;0.40;;;;;;;;;;5039230;28;92388;-50
2022/11/01 13:51:56;;;;;;;0.73;0.70;;;;;;;;;;5040096;28;91438;-52
2022/11/01 13:54:26;;;;;;;3.77;0.90;;;;;;;;;;5038789;28;93983;-52
2022/11/01 13:56:55;;;;;;;0.53;0.53;;;;;;;;;;5038893;28;93876;-53
2022/11/01 13:59:30;;;;;;;0.30;0.30;;;;;;;;;;5038547;28;93147;-51
2022/11/01 14:02:14;;;;;;;0.80;0.70;;;;;;;;;;5039700;28;92156;-52
2022/11/01 14:04:42;;;;;;;1.07;0.50;;;;;;;;;;5038865;28;94054;-52
2022/11/01 14:07:15;;;;;;;0.93;0.33;;;;;;;;;;5038873;28;93821;-52
2022/11/01 14:09:45;;;;;;;1.00;0.30;;;;;;;;;;5038509;28;92034;-56
2022/11/01 14:12:34;;;;;;;1.93;0.50;;;;;;;;;;5038980;28;91906;-53
2022/11/01 14:15:09;;;;;;;2.53;0.33;;;;;;;;;;5032670;28;92841;-57
2022/11/01 14:17:54;;;;;;;0.63;0.63;;;;;;;;;;5037467;28;93816;-50
2022/11/01 14:20:44;;;;;;;0.60;0.60;;;;;;;;;;5020145;28;92094;-52
2022/11/01 14:23:31;;;;;;;2.43;0.67;;;;;;;;;;5039185;28;92178;-52
2022/11/01 14:26:14;;;;;;;0.40;0.40;;;;;;;;;;5037703;28;94254;-51
2022/11/01 14:28:44;;;;;;;1.17;0.73;;;;;;;;;;5037415;28;94908;-51
2022/11/01 14:31:13;;;;;;;0.53;0.50;;;;;;;;;;5038640;28;92070;-51
2022/11/01 14:33:41;;;;;;;1.67;0.50;;;;;;;;;;5038579;28;91990;-52
2022/11/01 14:36:11;;;;;;;1.67;0.70;;;;;;;;;;5038076;28;94216;-51
2022/11/01 14:38:41;;;;;;;0.30;0.30;;;;;;;;;;5038206;28;93911;-52
2022/11/01 14:41:09;;;;;;;4.03;0.50;;;;;;;;;;5038542;28;92041;-51
2022/11/01 14:43:39;;;;;;;0.93;0.70;;;;;;;;;;5039064;28;91273;-51
2022/11/01 14:46:09;;;;;;;4.00;0.80;;;;;;;;;;5037945;28;94270;-51
2022/11/01 14:48:39;;;;;;;0.57;0.40;;;;;;;;;;5038070;28;93122;-51
2022/11/01 14:51:10;;;;;;;0.87;0.60;;;;;;;;;;5038155;28;92995;-51
2022/11/01 14:53:38;;;;;;;0.40;0.40;;;;;;;;;;5038582;28;92435;-51
2022/11/01 14:56:08;;;;;;;0.50;0.50;;;;;;;;;;5037859;28;93135;-51
2022/11/01 14:58:36;;;;;;;1.07;0.53;;;;;;;;;;5038194;28;92798;-51
2022/11/01 15:01:05;;;;;;;1.73;0.80;;;;;;;;;;5038620;28;92042;-51
2022/11/01 15:03:34;;;;;;;2.20;0.63;;;;;;;;;;5038604;28;92142;-52
2022/11/01 15:06:03;;;;;;;0.23;0.23;;;;;;;;;;5037662;28;93158;-51
2022/11/01 15:08:32;;;;;;;0.60;0.60;;;;;;;;;;5037876;28;92697;-53
2022/11/01 15:11:01;;;;;;;0.67;0.50;;;;;;;;;;5038375;28;92087;-51